sensor_id;sensor_type;location;lat;lon;timestamp;P1;durP1;ratioP1;P2;durP2;ratioP2
12122;SDS011;6125;59.628;17.852;2024-02-26T00:01:45;14.17;;;9.10;;
12122;SDS011;6125;59.628;17.852;2024-02-26T00:04:20;15.23;;;9.87;;
12122;SDS011;6125;59.628;17.852;2024-02-26T00:06:49;16.03;;;9.07;;
12122;SDS011;6125;59.628;17.852;2024-02-26T00:09:27;16.37;;;9.47;;
12122;SDS011;6125;59.628;17.852;2024-02-26T00:11:56;21.10;;;10.50;;
12122;SDS011;6125;59.628;17.852;2024-02-26T00:14:26;16.87;;;9.83;;
12122;SDS011;6125;59.628;17.852;2024-02-26T00:17:00;17.47;;;9.57;;
12122;SDS011;6125;59.628;17.852;2024-02-26T00:19:30;15.53;;;9.87;;
12122;SDS011;6125;59.628;17.852;2024-02-26T00:21:59;15.90;;;10.03;;
12122;SDS011;6125;59.628;17.852;2024-02-26T00:24:33;16.93;;;10.03;;
12122;SDS011;6125;59.628;17.852;2024-02-26T00:27:01;16.27;;;9.67;;
12122;SDS011;6125;59.628;17.852;2024-02-26T00:29:30;20.13;;;9.67;;
12122;SDS011;6125;59.628;17.852;2024-02-26T00:32:05;23.10;;;10.67;;
12122;SDS011;6125;59.628;17.852;2024-02-26T00:34:35;18.43;;;9.80;;
12122;SDS011;6125;59.628;17.852;2024-02-26T00:37:03;19.77;;;9.90;;
12122;SDS011;6125;59.628;17.852;2024-02-26T00:39:38;18.67;;;10.47;;
12122;SDS011;6125;59.628;17.852;2024-02-26T00:42:07;16.33;;;9.90;;
12122;SDS011;6125;59.628;17.852;2024-02-26T00:44:35;16.37;;;9.93;;
12122;SDS011;6125;59.628;17.852;2024-02-26T00:47:10;15.53;;;9.17;;
12122;SDS011;6125;59.628;17.852;2024-02-26T00:49:40;17.90;;;10.00;;
12122;SDS011;6125;59.628;17.852;2024-02-26T00:52:08;14.40;;;8.97;;
12122;SDS011;6125;59.628;17.852;2024-02-26T00:54:43;17.50;;;9.50;;
12122;SDS011;6125;59.628;17.852;2024-02-26T00:57:11;17.53;;;9.50;;
12122;SDS011;6125;59.628;17.852;2024-02-26T00:59:39;14.43;;;9.60;;
12122;SDS011;6125;59.628;17.852;2024-02-26T01:02:14;19.77;;;10.03;;
12122;SDS011;6125;59.628;17.852;2024-02-26T01:04:44;19.77;;;10.13;;
12122;SDS011;6125;59.628;17.852;2024-02-26T01:07:12;18.97;;;10.50;;
12122;SDS011;6125;59.628;17.852;2024-02-26T01:09:47;20.23;;;10.13;;
12122;SDS011;6125;59.628;17.852;2024-02-26T01:12:15;17.07;;;9.87;;
12122;SDS011;6125;59.628;17.852;2024-02-26T01:14:44;16.80;;;10.47;;
12122;SDS011;6125;59.628;17.852;2024-02-26T01:17:21;18.73;;;9.13;;
12122;SDS011;6125;59.628;17.852;2024-02-26T01:19:51;19.23;;;11.37;;
12122;SDS011;6125;59.628;17.852;2024-02-26T01:22:20;16.17;;;9.90;;
12122;SDS011;6125;59.628;17.852;2024-02-26T01:24:55;19.70;;;10.03;;
12122;SDS011;6125;59.628;17.852;2024-02-26T01:27:23;17.77;;;10.00;;
12122;SDS011;6125;59.628;17.852;2024-02-26T01:29:53;18.20;;;9.57;;
12122;SDS011;6125;59.628;17.852;2024-02-26T01:32:28;16.60;;;9.27;;
12122;SDS011;6125;59.628;17.852;2024-02-26T01:34:58;17.33;;;9.37;;
12122;SDS011;6125;59.628;17.852;2024-02-26T01:37:26;16.30;;;9.67;;
12122;SDS011;6125;59.628;17.852;2024-02-26T01:40:02;18.30;;;11.03;;
12122;SDS011;6125;59.628;17.852;2024-02-26T01:42:33;15.50;;;9.40;;
12122;SDS011;6125;59.628;17.852;2024-02-26T01:45:02;14.70;;;9.10;;
12122;SDS011;6125;59.628;17.852;2024-02-26T01:47:38;17.33;;;9.40;;
12122;SDS011;6125;59.628;17.852;2024-02-26T01:50:11;13.40;;;8.53;;
12122;SDS011;6125;59.628;17.852;2024-02-26T01:52:46;15.07;;;8.27;;
12122;SDS011;6125;59.628;17.852;2024-02-26T01:55:16;14.00;;;8.40;;
12122;SDS011;6125;59.628;17.852;2024-02-26T01:57:45;15.53;;;9.27;;
12122;SDS011;6125;59.628;17.852;2024-02-26T02:00:24;14.10;;;8.77;;
12122;SDS011;6125;59.628;17.852;2024-02-26T02:02:53;13.07;;;8.17;;
12122;SDS011;6125;59.628;17.852;2024-02-26T02:05:23;17.10;;;8.40;;
12122;SDS011;6125;59.628;17.852;2024-02-26T02:08:00;15.53;;;8.53;;
12122;SDS011;6125;59.628;17.852;2024-02-26T02:10:30;16.20;;;9.67;;
12122;SDS011;6125;59.628;17.852;2024-02-26T02:12:58;15.17;;;9.33;;
12122;SDS011;6125;59.628;17.852;2024-02-26T02:15:33;17.73;;;9.43;;
12122;SDS011;6125;59.628;17.852;2024-02-26T02:18:01;16.47;;;8.47;;
12122;SDS011;6125;59.628;17.852;2024-02-26T02:20:33;15.80;;;9.20;;
12122;SDS011;6125;59.628;17.852;2024-02-26T02:23:08;16.07;;;8.73;;
12122;SDS011;6125;59.628;17.852;2024-02-26T02:25:36;14.80;;;8.63;;
12122;SDS011;6125;59.628;17.852;2024-02-26T02:28:05;14.53;;;8.27;;
12122;SDS011;6125;59.628;17.852;2024-02-26T02:30:40;13.33;;;8.53;;
12122;SDS011;6125;59.628;17.852;2024-02-26T02:33:08;14.33;;;8.33;;
12122;SDS011;6125;59.628;17.852;2024-02-26T02:35:39;13.73;;;8.37;;
12122;SDS011;6125;59.628;17.852;2024-02-26T02:38:18;15.90;;;8.23;;
12122;SDS011;6125;59.628;17.852;2024-02-26T02:40:47;14.00;;;9.00;;
12122;SDS011;6125;59.628;17.852;2024-02-26T02:43:21;13.03;;;8.77;;
12122;SDS011;6125;59.628;17.852;2024-02-26T02:45:49;13.33;;;7.80;;
12122;SDS011;6125;59.628;17.852;2024-02-26T02:48:18;15.17;;;8.40;;
12122;SDS011;6125;59.628;17.852;2024-02-26T02:50:54;15.47;;;8.57;;
12122;SDS011;6125;59.628;17.852;2024-02-26T02:53:22;14.20;;;8.87;;
12122;SDS011;6125;59.628;17.852;2024-02-26T02:55:50;14.63;;;8.33;;
12122;SDS011;6125;59.628;17.852;2024-02-26T02:58:25;12.13;;;8.27;;
12122;SDS011;6125;59.628;17.852;2024-02-26T03:00:53;16.27;;;8.47;;
12122;SDS011;6125;59.628;17.852;2024-02-26T03:03:22;13.87;;;8.40;;
12122;SDS011;6125;59.628;17.852;2024-02-26T03:06:00;16.23;;;8.00;;
12122;SDS011;6125;59.628;17.852;2024-02-26T03:08:28;14.23;;;8.83;;
12122;SDS011;6125;59.628;17.852;2024-02-26T03:10:58;13.43;;;8.30;;
12122;SDS011;6125;59.628;17.852;2024-02-26T03:13:32;13.43;;;8.73;;
12122;SDS011;6125;59.628;17.852;2024-02-26T03:16:03;16.13;;;9.23;;
12122;SDS011;6125;59.628;17.852;2024-02-26T03:18:32;14.10;;;9.00;;
12122;SDS011;6125;59.628;17.852;2024-02-26T03:21:09;14.77;;;8.53;;
12122;SDS011;6125;59.628;17.852;2024-02-26T03:23:37;14.03;;;8.87;;
12122;SDS011;6125;59.628;17.852;2024-02-26T03:26:06;14.30;;;8.50;;
12122;SDS011;6125;59.628;17.852;2024-02-26T03:28:41;15.97;;;9.57;;
12122;SDS011;6125;59.628;17.852;2024-02-26T03:31:09;14.93;;;8.93;;
12122;SDS011;6125;59.628;17.852;2024-02-26T03:33:38;12.60;;;8.43;;
12122;SDS011;6125;59.628;17.852;2024-02-26T03:36:15;18.50;;;9.50;;
12122;SDS011;6125;59.628;17.852;2024-02-26T03:38:43;15.70;;;8.70;;
12122;SDS011;6125;59.628;17.852;2024-02-26T03:41:11;16.37;;;8.77;;
12122;SDS011;6125;59.628;17.852;2024-02-26T03:43:46;13.73;;;8.40;;
12122;SDS011;6125;59.628;17.852;2024-02-26T03:46:14;12.00;;;7.87;;
12122;SDS011;6125;59.628;17.852;2024-02-26T03:48:43;14.63;;;8.10;;
12122;SDS011;6125;59.628;17.852;2024-02-26T03:51:19;14.53;;;8.93;;
12122;SDS011;6125;59.628;17.852;2024-02-26T03:53:47;15.27;;;8.77;;
12122;SDS011;6125;59.628;17.852;2024-02-26T03:56:15;15.60;;;9.00;;
12122;SDS011;6125;59.628;17.852;2024-02-26T03:58:50;18.27;;;8.80;;
12122;SDS011;6125;59.628;17.852;2024-02-26T04:01:18;13.57;;;8.53;;
12122;SDS011;6125;59.628;17.852;2024-02-26T04:03:47;13.43;;;9.00;;
12122;SDS011;6125;59.628;17.852;2024-02-26T04:06:23;13.83;;;8.30;;
12122;SDS011;6125;59.628;17.852;2024-02-26T04:08:51;13.87;;;8.90;;
12122;SDS011;6125;59.628;17.852;2024-02-26T04:11:19;12.53;;;8.80;;
12122;SDS011;6125;59.628;17.852;2024-02-26T04:13:54;10.60;;;7.83;;
12122;SDS011;6125;59.628;17.852;2024-02-26T04:16:25;17.57;;;8.87;;
12122;SDS011;6125;59.628;17.852;2024-02-26T04:18:53;15.00;;;8.97;;
12122;SDS011;6125;59.628;17.852;2024-02-26T04:21:32;12.63;;;8.63;;
12122;SDS011;6125;59.628;17.852;2024-02-26T04:24:00;13.50;;;8.70;;
12122;SDS011;6125;59.628;17.852;2024-02-26T04:26:35;15.33;;;9.10;;
12122;SDS011;6125;59.628;17.852;2024-02-26T04:29:05;16.53;;;8.63;;
12122;SDS011;6125;59.628;17.852;2024-02-26T04:31:33;14.07;;;7.87;;
12122;SDS011;6125;59.628;17.852;2024-02-26T04:34:08;16.30;;;8.87;;
12122;SDS011;6125;59.628;17.852;2024-02-26T04:36:41;14.33;;;8.70;;
12122;SDS011;6125;59.628;17.852;2024-02-26T04:39:16;12.50;;;8.40;;
12122;SDS011;6125;59.628;17.852;2024-02-26T04:41:44;11.50;;;7.43;;
12122;SDS011;6125;59.628;17.852;2024-02-26T04:44:13;15.13;;;8.03;;
12122;SDS011;6125;59.628;17.852;2024-02-26T04:46:47;14.93;;;7.47;;
12122;SDS011;6125;59.628;17.852;2024-02-26T04:49:15;12.53;;;7.90;;
12122;SDS011;6125;59.628;17.852;2024-02-26T04:51:45;14.57;;;8.00;;
12122;SDS011;6125;59.628;17.852;2024-02-26T04:54:20;14.43;;;8.10;;
12122;SDS011;6125;59.628;17.852;2024-02-26T04:56:49;14.20;;;8.70;;
12122;SDS011;6125;59.628;17.852;2024-02-26T04:59:17;13.47;;;7.70;;
12122;SDS011;6125;59.628;17.852;2024-02-26T05:01:51;18.23;;;8.77;;
12122;SDS011;6125;59.628;17.852;2024-02-26T05:04:19;13.67;;;7.80;;
12122;SDS011;6125;59.628;17.852;2024-02-26T05:06:50;16.53;;;8.43;;
12122;SDS011;6125;59.628;17.852;2024-02-26T05:09:24;13.73;;;9.07;;
12122;SDS011;6125;59.628;17.852;2024-02-26T05:11:53;14.07;;;7.90;;
12122;SDS011;6125;59.628;17.852;2024-02-26T05:14:21;12.37;;;7.80;;
12122;SDS011;6125;59.628;17.852;2024-02-26T05:16:55;11.73;;;8.13;;
12122;SDS011;6125;59.628;17.852;2024-02-26T05:19:23;14.50;;;8.40;;
12122;SDS011;6125;59.628;17.852;2024-02-26T05:21:53;13.23;;;8.60;;
12122;SDS011;6125;59.628;17.852;2024-02-26T05:24:28;13.90;;;8.10;;
12122;SDS011;6125;59.628;17.852;2024-02-26T05:26:57;14.43;;;8.10;;
12122;SDS011;6125;59.628;17.852;2024-02-26T05:29:25;12.73;;;8.00;;
12122;SDS011;6125;59.628;17.852;2024-02-26T05:31:59;15.03;;;8.67;;
12122;SDS011;6125;59.628;17.852;2024-02-26T05:34:28;11.13;;;7.93;;
12122;SDS011;6125;59.628;17.852;2024-02-26T05:36:58;16.83;;;9.23;;
12122;SDS011;6125;59.628;17.852;2024-02-26T05:39:32;15.67;;;8.67;;
12122;SDS011;6125;59.628;17.852;2024-02-26T05:42:01;13.53;;;9.17;;
12122;SDS011;6125;59.628;17.852;2024-02-26T05:44:29;17.73;;;8.90;;
12122;SDS011;6125;59.628;17.852;2024-02-26T05:47:05;18.20;;;8.50;;
12122;SDS011;6125;59.628;17.852;2024-02-26T05:49:33;11.40;;;8.30;;
12122;SDS011;6125;59.628;17.852;2024-02-26T05:52:03;17.33;;;8.80;;
12122;SDS011;6125;59.628;17.852;2024-02-26T05:54:38;13.97;;;8.27;;
12122;SDS011;6125;59.628;17.852;2024-02-26T05:57:06;25.47;;;13.63;;
12122;SDS011;6125;59.628;17.852;2024-02-26T05:59:35;16.73;;;9.43;;
12122;SDS011;6125;59.628;17.852;2024-02-26T06:02:09;12.90;;;8.50;;
12122;SDS011;6125;59.628;17.852;2024-02-26T06:04:37;26.10;;;8.43;;
12122;SDS011;6125;59.628;17.852;2024-02-26T06:07:07;14.67;;;9.07;;
12122;SDS011;6125;59.628;17.852;2024-02-26T06:09:42;13.73;;;7.80;;
12122;SDS011;6125;59.628;17.852;2024-02-26T06:12:11;15.60;;;8.33;;
12122;SDS011;6125;59.628;17.852;2024-02-26T06:14:39;16.83;;;9.00;;
12122;SDS011;6125;59.628;17.852;2024-02-26T06:17:13;20.53;;;8.87;;
12122;SDS011;6125;59.628;17.852;2024-02-26T06:19:42;20.83;;;10.23;;
12122;SDS011;6125;59.628;17.852;2024-02-26T06:22:11;18.00;;;8.87;;
12122;SDS011;6125;59.628;17.852;2024-02-26T06:24:46;16.13;;;9.63;;
12122;SDS011;6125;59.628;17.852;2024-02-26T06:27:14;17.23;;;9.63;;
12122;SDS011;6125;59.628;17.852;2024-02-26T06:29:43;18.40;;;9.53;;
12122;SDS011;6125;59.628;17.852;2024-02-26T06:32:20;18.47;;;9.53;;
12122;SDS011;6125;59.628;17.852;2024-02-26T06:34:49;16.90;;;9.63;;
12122;SDS011;6125;59.628;17.852;2024-02-26T06:37:26;16.67;;;8.63;;
12122;SDS011;6125;59.628;17.852;2024-02-26T06:39:54;19.90;;;9.63;;
12122;SDS011;6125;59.628;17.852;2024-02-26T06:42:22;14.53;;;8.17;;
12122;SDS011;6125;59.628;17.852;2024-02-26T06:44:57;17.33;;;9.37;;
12122;SDS011;6125;59.628;17.852;2024-02-26T06:47:26;14.33;;;8.37;;
12122;SDS011;6125;59.628;17.852;2024-02-26T06:49:54;13.63;;;8.80;;
12122;SDS011;6125;59.628;17.852;2024-02-26T06:52:32;17.43;;;8.90;;
12122;SDS011;6125;59.628;17.852;2024-02-26T06:55:00;17.50;;;8.23;;
12122;SDS011;6125;59.628;17.852;2024-02-26T06:57:28;15.27;;;7.47;;
12122;SDS011;6125;59.628;17.852;2024-02-26T07:00:04;11.67;;;7.63;;
12122;SDS011;6125;59.628;17.852;2024-02-26T07:02:33;16.37;;;7.70;;
12122;SDS011;6125;59.628;17.852;2024-02-26T07:05:05;12.67;;;7.23;;
12122;SDS011;6125;59.628;17.852;2024-02-26T07:07:41;12.50;;;7.77;;
12122;SDS011;6125;59.628;17.852;2024-02-26T07:10:09;13.93;;;7.20;;
12122;SDS011;6125;59.628;17.852;2024-02-26T07:12:39;14.57;;;6.90;;
12122;SDS011;6125;59.628;17.852;2024-02-26T07:15:13;24.57;;;7.60;;
12122;SDS011;6125;59.628;17.852;2024-02-26T07:17:42;12.27;;;6.60;;
12122;SDS011;6125;59.628;17.852;2024-02-26T07:20:14;15.80;;;6.77;;
12122;SDS011;6125;59.628;17.852;2024-02-26T07:22:52;12.97;;;6.20;;
12122;SDS011;6125;59.628;17.852;2024-02-26T07:25:20;13.80;;;6.40;;
12122;SDS011;6125;59.628;17.852;2024-02-26T07:27:48;13.20;;;5.60;;
12122;SDS011;6125;59.628;17.852;2024-02-26T07:30:22;7.37;;;5.43;;
12122;SDS011;6125;59.628;17.852;2024-02-26T07:32:52;9.10;;;5.70;;
12122;SDS011;6125;59.628;17.852;2024-02-26T07:35:20;7.17;;;4.67;;
12122;SDS011;6125;59.628;17.852;2024-02-26T07:37:56;9.77;;;5.40;;
12122;SDS011;6125;59.628;17.852;2024-02-26T07:40:24;10.13;;;4.93;;
12122;SDS011;6125;59.628;17.852;2024-02-26T07:42:53;8.83;;;5.80;;
12122;SDS011;6125;59.628;17.852;2024-02-26T07:45:28;8.63;;;5.43;;
12122;SDS011;6125;59.628;17.852;2024-02-26T07:47:57;9.80;;;5.17;;
12122;SDS011;6125;59.628;17.852;2024-02-26T07:50:25;9.97;;;5.80;;
12122;SDS011;6125;59.628;17.852;2024-02-26T07:53:01;10.37;;;5.47;;
12122;SDS011;6125;59.628;17.852;2024-02-26T07:55:29;9.63;;;5.10;;
12122;SDS011;6125;59.628;17.852;2024-02-26T07:57:57;7.90;;;5.90;;
12122;SDS011;6125;59.628;17.852;2024-02-26T08:00:35;8.57;;;5.43;;
12122;SDS011;6125;59.628;17.852;2024-02-26T08:03:03;8.13;;;5.87;;
12122;SDS011;6125;59.628;17.852;2024-02-26T08:05:32;10.67;;;5.30;;
12122;SDS011;6125;59.628;17.852;2024-02-26T08:08:08;8.60;;;5.33;;
12122;SDS011;6125;59.628;17.852;2024-02-26T08:10:36;10.23;;;6.03;;
12122;SDS011;6125;59.628;17.852;2024-02-26T08:13:04;9.07;;;5.77;;
12122;SDS011;6125;59.628;17.852;2024-02-26T08:15:39;9.30;;;6.13;;
12122;SDS011;6125;59.628;17.852;2024-02-26T08:18:08;7.83;;;5.40;;
12122;SDS011;6125;59.628;17.852;2024-02-26T08:20:37;9.40;;;5.90;;
12122;SDS011;6125;59.628;17.852;2024-02-26T08:23:13;9.43;;;5.93;;
12122;SDS011;6125;59.628;17.852;2024-02-26T08:25:41;12.67;;;6.47;;
12122;SDS011;6125;59.628;17.852;2024-02-26T08:28:09;11.67;;;5.53;;
12122;SDS011;6125;59.628;17.852;2024-02-26T08:30:45;14.47;;;6.27;;
12122;SDS011;6125;59.628;17.852;2024-02-26T08:33:14;8.80;;;6.30;;
12122;SDS011;6125;59.628;17.852;2024-02-26T08:35:42;9.03;;;5.80;;
12122;SDS011;6125;59.628;17.852;2024-02-26T08:38:19;7.23;;;5.60;;
12122;SDS011;6125;59.628;17.852;2024-02-26T08:40:48;7.53;;;5.77;;
12122;SDS011;6125;59.628;17.852;2024-02-26T08:43:16;11.43;;;6.37;;
12122;SDS011;6125;59.628;17.852;2024-02-26T08:45:52;12.63;;;6.20;;
12122;SDS011;6125;59.628;17.852;2024-02-26T08:48:20;13.53;;;6.93;;
12122;SDS011;6125;59.628;17.852;2024-02-26T08:50:48;11.47;;;6.23;;
12122;SDS011;6125;59.628;17.852;2024-02-26T08:53:25;13.23;;;6.53;;
12122;SDS011;6125;59.628;17.852;2024-02-26T08:56:07;12.67;;;6.57;;
12122;SDS011;6125;59.628;17.852;2024-02-26T08:58:42;10.60;;;6.30;;
12122;SDS011;6125;59.628;17.852;2024-02-26T09:01:10;16.57;;;6.70;;
12122;SDS011;6125;59.628;17.852;2024-02-26T09:03:38;10.40;;;7.53;;
12122;SDS011;6125;59.628;17.852;2024-02-26T09:06:14;10.37;;;6.93;;
12122;SDS011;6125;59.628;17.852;2024-02-26T09:08:44;9.23;;;6.73;;
12122;SDS011;6125;59.628;17.852;2024-02-26T09:11:12;11.57;;;7.13;;
12122;SDS011;6125;59.628;17.852;2024-02-26T09:13:47;11.17;;;6.27;;
12122;SDS011;6125;59.628;17.852;2024-02-26T09:16:16;10.80;;;6.73;;
12122;SDS011;6125;59.628;17.852;2024-02-26T09:18:44;15.77;;;7.23;;
12122;SDS011;6125;59.628;17.852;2024-02-26T09:21:20;10.47;;;6.77;;
12122;SDS011;6125;59.628;17.852;2024-02-26T09:23:52;13.47;;;6.60;;
12122;SDS011;6125;59.628;17.852;2024-02-26T09:26:28;10.17;;;6.37;;
12122;SDS011;6125;59.628;17.852;2024-02-26T09:29:01;7.97;;;6.37;;
12122;SDS011;6125;59.628;17.852;2024-02-26T09:31:36;7.83;;;6.07;;
12122;SDS011;6125;59.628;17.852;2024-02-26T09:34:07;10.93;;;6.20;;
12122;SDS011;6125;59.628;17.852;2024-02-26T09:36:35;7.33;;;5.97;;
12122;SDS011;6125;59.628;17.852;2024-02-26T09:39:12;9.63;;;6.03;;
12122;SDS011;6125;59.628;17.852;2024-02-26T09:41:43;12.67;;;6.17;;
12122;SDS011;6125;59.628;17.852;2024-02-26T09:44:20;10.57;;;6.40;;
12122;SDS011;6125;59.628;17.852;2024-02-26T09:46:48;8.63;;;6.10;;
12122;SDS011;6125;59.628;17.852;2024-02-26T09:49:26;7.53;;;5.90;;
12122;SDS011;6125;59.628;17.852;2024-02-26T09:51:55;10.23;;;5.77;;
12122;SDS011;6125;59.628;17.852;2024-02-26T09:54:27;9.23;;;6.07;;
12122;SDS011;6125;59.628;17.852;2024-02-26T09:57:04;9.67;;;5.40;;
12122;SDS011;6125;59.628;17.852;2024-02-26T09:59:47;10.10;;;5.93;;
12122;SDS011;6125;59.628;17.852;2024-02-26T10:02:26;9.70;;;5.70;;
12122;SDS011;6125;59.628;17.852;2024-02-26T10:04:55;12.90;;;6.30;;
12122;SDS011;6125;59.628;17.852;2024-02-26T10:07:40;10.27;;;6.53;;
12122;SDS011;6125;59.628;17.852;2024-02-26T10:10:11;10.20;;;6.10;;
12122;SDS011;6125;59.628;17.852;2024-02-26T10:12:39;10.80;;;6.40;;
12122;SDS011;6125;59.628;17.852;2024-02-26T10:15:14;9.83;;;6.33;;
12122;SDS011;6125;59.628;17.852;2024-02-26T10:17:42;8.77;;;6.70;;
12122;SDS011;6125;59.628;17.852;2024-02-26T10:20:11;14.00;;;7.37;;
12122;SDS011;6125;59.628;17.852;2024-02-26T10:22:48;8.43;;;6.83;;
12122;SDS011;6125;59.628;17.852;2024-02-26T10:25:20;8.83;;;7.00;;
12122;SDS011;6125;59.628;17.852;2024-02-26T10:27:55;10.83;;;7.17;;
12122;SDS011;6125;59.628;17.852;2024-02-26T10:30:28;11.00;;;6.83;;
12122;SDS011;6125;59.628;17.852;2024-02-26T10:33:03;9.80;;;6.70;;
12122;SDS011;6125;59.628;17.852;2024-02-26T10:35:31;8.70;;;6.03;;
12122;SDS011;6125;59.628;17.852;2024-02-26T10:38:00;12.33;;;7.40;;
12122;SDS011;6125;59.628;17.852;2024-02-26T10:40:39;11.47;;;6.67;;
12122;SDS011;6125;59.628;17.852;2024-02-26T10:43:07;11.07;;;7.43;;
12122;SDS011;6125;59.628;17.852;2024-02-26T10:45:35;10.57;;;7.27;;
12122;SDS011;6125;59.628;17.852;2024-02-26T10:48:15;11.87;;;7.53;;
12122;SDS011;6125;59.628;17.852;2024-02-26T10:50:43;13.57;;;7.47;;
12122;SDS011;6125;59.628;17.852;2024-02-26T10:53:13;12.60;;;7.40;;
12122;SDS011;6125;59.628;17.852;2024-02-26T10:55:54;9.37;;;6.93;;
12122;SDS011;6125;59.628;17.852;2024-02-26T10:58:24;9.93;;;7.47;;
12122;SDS011;6125;59.628;17.852;2024-02-26T11:01:00;10.37;;;7.63;;
12122;SDS011;6125;59.628;17.852;2024-02-26T11:03:28;16.50;;;7.53;;
12122;SDS011;6125;59.628;17.852;2024-02-26T11:06:08;11.87;;;7.60;;
12122;SDS011;6125;59.628;17.852;2024-02-26T11:08:37;11.33;;;6.90;;
12122;SDS011;6125;59.628;17.852;2024-02-26T11:11:07;10.97;;;7.30;;
12122;SDS011;6125;59.628;17.852;2024-02-26T11:13:46;11.73;;;7.33;;
12122;SDS011;6125;59.628;17.852;2024-02-26T11:16:18;10.73;;;6.63;;
12122;SDS011;6125;59.628;17.852;2024-02-26T11:18:53;10.00;;;7.20;;
12122;SDS011;6125;59.628;17.852;2024-02-26T11:21:23;10.00;;;7.10;;
12122;SDS011;6125;59.628;17.852;2024-02-26T11:24:03;9.77;;;7.30;;
12122;SDS011;6125;59.628;17.852;2024-02-26T11:26:35;9.17;;;6.87;;
12122;SDS011;6125;59.628;17.852;2024-02-26T11:29:19;10.50;;;7.23;;
12122;SDS011;6125;59.628;17.852;2024-02-26T11:31:50;9.23;;;6.57;;
12122;SDS011;6125;59.628;17.852;2024-02-26T11:34:26;10.47;;;8.10;;
12122;SDS011;6125;59.628;17.852;2024-02-26T11:36:55;8.60;;;6.60;;
12122;SDS011;6125;59.628;17.852;2024-02-26T11:39:24;10.30;;;6.50;;
12122;SDS011;6125;59.628;17.852;2024-02-26T11:42:06;7.27;;;5.90;;
12122;SDS011;6125;59.628;17.852;2024-02-26T11:44:35;6.73;;;5.57;;
12122;SDS011;6125;59.628;17.852;2024-02-26T11:47:10;8.10;;;6.53;;
12122;SDS011;6125;59.628;17.852;2024-02-26T11:49:39;9.10;;;7.30;;
12122;SDS011;6125;59.628;17.852;2024-02-26T11:52:08;10.03;;;6.60;;
12122;SDS011;6125;59.628;17.852;2024-02-26T11:54:44;8.23;;;6.07;;
12122;SDS011;6125;59.628;17.852;2024-02-26T11:57:24;8.27;;;6.33;;
12122;SDS011;6125;59.628;17.852;2024-02-26T12:00:10;12.10;;;7.00;;
12122;SDS011;6125;59.628;17.852;2024-02-26T12:02:40;7.33;;;5.80;;
12122;SDS011;6125;59.628;17.852;2024-02-26T12:05:19;8.50;;;6.47;;
12122;SDS011;6125;59.628;17.852;2024-02-26T12:07:52;8.30;;;6.00;;
12122;SDS011;6125;59.628;17.852;2024-02-26T12:10:31;7.27;;;5.47;;
12122;SDS011;6125;59.628;17.852;2024-02-26T12:13:04;7.70;;;5.10;;
12122;SDS011;6125;59.628;17.852;2024-02-26T12:15:46;8.20;;;6.03;;
12122;SDS011;6125;59.628;17.852;2024-02-26T12:18:23;7.73;;;5.57;;
12122;SDS011;6125;59.628;17.852;2024-02-26T12:20:59;9.00;;;5.80;;
12122;SDS011;6125;59.628;17.852;2024-02-26T12:23:28;8.83;;;6.73;;
12122;SDS011;6125;59.628;17.852;2024-02-26T12:25:58;10.47;;;6.63;;
12122;SDS011;6125;59.628;17.852;2024-02-26T12:28:37;7.73;;;5.80;;
12122;SDS011;6125;59.628;17.852;2024-02-26T12:31:06;7.40;;;6.60;;
12122;SDS011;6125;59.628;17.852;2024-02-26T12:33:41;7.50;;;6.10;;
12122;SDS011;6125;59.628;17.852;2024-02-26T12:36:09;9.20;;;6.73;;
12122;SDS011;6125;59.628;17.852;2024-02-26T12:38:37;10.53;;;6.53;;
12122;SDS011;6125;59.628;17.852;2024-02-26T12:41:13;8.60;;;6.40;;
12122;SDS011;6125;59.628;17.852;2024-02-26T12:43:43;7.73;;;5.90;;
12122;SDS011;6125;59.628;17.852;2024-02-26T12:46:15;6.93;;;5.17;;
12122;SDS011;6125;59.628;17.852;2024-02-26T12:48:51;7.27;;;5.23;;
12122;SDS011;6125;59.628;17.852;2024-02-26T12:51:20;8.00;;;5.53;;
12122;SDS011;6125;59.628;17.852;2024-02-26T12:53:49;6.20;;;5.17;;
12122;SDS011;6125;59.628;17.852;2024-02-26T12:56:25;8.50;;;5.33;;
12122;SDS011;6125;59.628;17.852;2024-02-26T12:58:56;8.23;;;5.40;;
12122;SDS011;6125;59.628;17.852;2024-02-26T13:01:24;6.90;;;5.27;;
12122;SDS011;6125;59.628;17.852;2024-02-26T13:04:00;7.83;;;5.20;;
12122;SDS011;6125;59.628;17.852;2024-02-26T13:06:33;6.80;;;5.00;;
12122;SDS011;6125;59.628;17.852;2024-02-26T13:09:08;7.73;;;5.67;;
12122;SDS011;6125;59.628;17.852;2024-02-26T13:11:40;7.73;;;5.73;;
12122;SDS011;6125;59.628;17.852;2024-02-26T13:14:20;8.20;;;5.50;;
12122;SDS011;6125;59.628;17.852;2024-02-26T13:16:54;6.87;;;5.00;;
12122;SDS011;6125;59.628;17.852;2024-02-26T13:19:30;7.87;;;5.40;;
12122;SDS011;6125;59.628;17.852;2024-02-26T13:22:03;8.97;;;5.93;;
12122;SDS011;6125;59.628;17.852;2024-02-26T13:24:39;8.67;;;4.87;;
12122;SDS011;6125;59.628;17.852;2024-02-26T13:27:07;6.73;;;5.10;;
12122;SDS011;6125;59.628;17.852;2024-02-26T13:29:37;6.07;;;5.07;;
12122;SDS011;6125;59.628;17.852;2024-02-26T13:32:12;10.13;;;6.10;;
12122;SDS011;6125;59.628;17.852;2024-02-26T13:34:40;9.27;;;6.13;;
12122;SDS011;6125;59.628;17.852;2024-02-26T13:37:08;8.20;;;5.77;;
12122;SDS011;6125;59.628;17.852;2024-02-26T13:39:43;8.93;;;5.43;;
12122;SDS011;6125;59.628;17.852;2024-02-26T13:42:11;9.33;;;5.83;;
12122;SDS011;6125;59.628;17.852;2024-02-26T13:44:41;6.90;;;4.83;;
12122;SDS011;6125;59.628;17.852;2024-02-26T13:47:16;8.67;;;5.60;;
12122;SDS011;6125;59.628;17.852;2024-02-26T13:49:44;7.40;;;5.63;;
12122;SDS011;6125;59.628;17.852;2024-02-26T13:52:13;7.43;;;5.10;;
12122;SDS011;6125;59.628;17.852;2024-02-26T13:54:48;6.70;;;5.07;;
12122;SDS011;6125;59.628;17.852;2024-02-26T13:57:16;6.80;;;4.80;;
12122;SDS011;6125;59.628;17.852;2024-02-26T13:59:46;6.07;;;5.43;;
12122;SDS011;6125;59.628;17.852;2024-02-26T14:02:21;7.70;;;5.07;;
12122;SDS011;6125;59.628;17.852;2024-02-26T14:04:49;7.60;;;4.67;;
12122;SDS011;6125;59.628;17.852;2024-02-26T14:07:17;7.00;;;5.03;;
12122;SDS011;6125;59.628;17.852;2024-02-26T14:09:52;6.03;;;4.37;;
12122;SDS011;6125;59.628;17.852;2024-02-26T14:12:20;6.20;;;4.67;;
12122;SDS011;6125;59.628;17.852;2024-02-26T14:14:52;7.50;;;5.37;;
12122;SDS011;6125;59.628;17.852;2024-02-26T14:17:28;9.03;;;5.50;;
12122;SDS011;6125;59.628;17.852;2024-02-26T14:19:57;7.03;;;5.30;;
12122;SDS011;6125;59.628;17.852;2024-02-26T14:22:25;8.57;;;5.67;;
12122;SDS011;6125;59.628;17.852;2024-02-26T14:25:00;9.30;;;5.40;;
12122;SDS011;6125;59.628;17.852;2024-02-26T14:27:28;7.63;;;5.20;;
12122;SDS011;6125;59.628;17.852;2024-02-26T14:29:58;7.90;;;5.63;;
12122;SDS011;6125;59.628;17.852;2024-02-26T14:32:34;7.80;;;5.23;;
12122;SDS011;6125;59.628;17.852;2024-02-26T14:35:05;7.17;;;5.83;;
12122;SDS011;6125;59.628;17.852;2024-02-26T14:37:43;8.33;;;6.37;;
12122;SDS011;6125;59.628;17.852;2024-02-26T14:40:14;10.23;;;7.03;;
12122;SDS011;6125;59.628;17.852;2024-02-26T14:42:49;9.97;;;6.40;;
12122;SDS011;6125;59.628;17.852;2024-02-26T14:45:18;10.50;;;7.20;;
12122;SDS011;6125;59.628;17.852;2024-02-26T14:47:47;9.20;;;6.47;;
12122;SDS011;6125;59.628;17.852;2024-02-26T14:50:22;11.97;;;6.60;;
12122;SDS011;6125;59.628;17.852;2024-02-26T14:52:50;10.53;;;6.43;;
12122;SDS011;6125;59.628;17.852;2024-02-26T14:55:18;8.87;;;6.47;;
12122;SDS011;6125;59.628;17.852;2024-02-26T14:57:54;8.57;;;6.30;;
12122;SDS011;6125;59.628;17.852;2024-02-26T15:00:23;8.03;;;6.13;;
12122;SDS011;6125;59.628;17.852;2024-02-26T15:02:52;8.07;;;6.30;;
12122;SDS011;6125;59.628;17.852;2024-02-26T15:05:27;8.53;;;6.67;;